CPE2 weather

Ajax (Pickering General Hospital) Heliport
Ajax, Ontario, Canada

Public forecast

Using degrees Celsius for public forecast. Weather courtesy of forecast.io.

METAR (pilot weather report)

Closest report is Toronto/Oshawa Executive Airport, 7.4 nm (13.8 km) NE. Retrieved 2019/05/21 14:00 UTC (8 minutes ago):

CYOO 211400Z AUTO 34014G21KT 9SM CLR 13/05 A3008 RMK SLP191

TAF (pilot weather forecast)

Closest forecast is Toronto/Oshawa Executive Airport, 7.4 nm (13.8 km) NE. Retrieved 2019/05/21 14:00 UTC (8 minutes ago):

TAF CYOO 211338Z 2114/2202 34015G25KT P6SM FEW040 BECMG 2122/2123 34010KT RMK FCST BASED ON AUTO OBS. NXT FCST BY 212000Z